Time;durP1;ratioP1;P1;durP2;ratioP2;P2;SDS_P1;SDS_P2;PMS_P1;PMS_P2;Temp;Humidity;BMP_temperature;BMP_pressure;BME280_temperature;BME280_humidity;BME280_pressure;Samples;Min_cycle;Max_cycle;Signal;HPM_P1;HPM_P2
2022/10/21 00:01:07;;;;;;;;;1.00;1.00;;;;;16.52;82.16;100362.66;5039056;28;45451;-47
2022/10/21 00:03:33;;;;;;;;;4.50;3.00;;;;;16.50;82.64;100363.88;5039123;28;45249;-45
2022/10/21 00:05:59;;;;;;;;;6.00;2.00;;;;;16.48;82.19;100361.38;5021361;28;45259;-44
2022/10/21 00:08:24;;;;;;;;;2.50;1.50;;;;;16.45;83.22;100354.53;5038827;28;45451;-44
2022/10/21 00:10:52;;;;;;;;;2.00;0.50;;;;;16.43;82.84;100353.94;5038952;28;45301;-47
2022/10/21 00:13:18;;;;;;;;;2.00;1.00;;;;;16.46;82.87;100348.16;5039208;28;45329;-45
2022/10/21 00:15:43;;;;;;;;;1.00;0.00;;;;;16.44;82.84;100336.78;5039146;28;45555;-47
2022/10/21 00:18:08;;;;;;;;;4.25;1.75;;;;;16.44;82.80;100331.41;5038902;28;45324;-45
2022/10/21 00:20:34;;;;;;;;;2.00;2.00;;;;;16.45;82.43;100330.38;5038800;28;45297;-46
2022/10/21 00:22:59;;;;;;;;;2.50;2.50;;;;;16.41;82.26;100326.44;5039381;28;45369;-48
2022/10/21 00:25:25;;;;;;;;;2.00;2.00;;;;;16.44;82.48;100328.72;5039394;28;45507;-44
2022/10/21 00:27:50;;;;;;;;;2.25;2.25;;;;;16.46;82.21;100321.28;5038689;28;46405;-44
2022/10/21 00:30:15;;;;;;;;;2.75;2.00;;;;;16.44;83.11;100319.84;5038742;28;45465;-46
2022/10/21 00:32:41;;;;;;;;;4.00;1.25;;;;;16.43;82.76;100326.22;5021184;28;45328;-48
2022/10/21 00:35:06;;;;;;;;;2.00;0.00;;;;;16.43;82.30;100321.72;5039051;28;45465;-46
2022/10/21 00:37:32;;;;;;;;;3.00;1.75;;;;;16.41;82.80;100323.75;5037987;28;45929;-46
2022/10/21 00:39:58;;;;;;;;;1.25;1.00;;;;;16.39;82.75;100322.25;5038137;28;45466;-49
2022/10/21 00:42:31;;;;;;;;;2.00;2.00;;;;;16.29;82.73;100306.50;5038929;28;45214;-47
2022/10/21 00:45:22;;;;;;;;;3.50;2.50;;;;;16.34;82.83;100316.66;5038891;28;45324;-45
2022/10/21 00:48:11;;;;;;;;;1.25;1.25;;;;;16.34;83.01;100313.97;4976795;28;46253;-46
2022/10/21 00:51:09;;;;;;;;;2.00;2.00;;;;;16.34;83.02;100313.97;4977069;28;45423;-49
2022/10/21 00:53:37;;;;;;;;;3.25;2.00;;;;;16.31;83.56;100309.00;4976461;28;45366;-45
2022/10/21 00:56:09;;;;;;;;;2.75;1.25;;;;;16.28;83.43;100295.97;4976713;28;45449;-44
2022/10/21 00:58:36;;;;;;;;;3.25;1.50;;;;;16.32;83.58;100294.56;4957046;28;45411;-47
2022/10/21 01:01:04;;;;;;;;;2.00;2.00;;;;;16.27;83.51;100289.78;4956867;28;45332;-45
2022/10/21 01:03:32;;;;;;;;;3.00;3.00;;;;;16.30;84.03;100285.84;4940523;28;45457;-49
2022/10/21 01:06:01;;;;;;;;;4.00;2.50;;;;;16.17;83.52;100257.91;4957098;28;45285;-46
2022/10/21 01:08:28;;;;;;;;;5.50;3.00;;;;;16.26;83.83;100276.53;4956738;28;45728;-45
2022/10/21 01:10:53;;;;;;;;;3.00;3.00;;;;;16.29;84.28;100273.47;4956632;28;45245;-48
2022/10/21 01:13:47;;;;;;;;;3.00;2.50;;;;;16.31;83.88;100266.06;4957048;28;45555;-45
2022/10/21 01:16:30;;;;;;;;;2.25;2.25;;;;;16.37;83.51;100249.16;4956979;28;45344;-46
2022/10/21 01:19:01;;;;;;;;;4.75;3.00;;;;;16.38;83.41;100248.13;4956757;28;45593;-46
2022/10/21 01:21:40;;;;;;;;;2.00;2.00;;;;;16.38;83.85;100235.53;4956747;28;45385;-49
2022/10/21 01:24:14;;;;;;;;;4.00;1.00;;;;;16.42;83.83;100246.72;4969870;28;45379;-45
2022/10/21 01:27:02;;;;;;;;;8.00;4.00;;;;;16.45;83.44;100235.59;5018200;28;45229;-49
2022/10/21 01:29:56;;;;;;;;;5.50;3.00;;;;;16.49;83.44;100226.13;4956264;28;46160;-46
2022/10/21 01:32:49;;;;;;;;;5.00;2.00;;;;;16.54;83.02;100244.31;4956660;28;45382;-47
2022/10/21 01:35:33;;;;;;;;;3.00;3.00;;;;;16.57;82.68;100260.88;4956646;28;45268;-45
2022/10/21 01:38:07;;;;;;;;;3.00;3.00;;;;;16.60;82.97;100248.88;4956939;28;45394;-46
2022/10/21 01:40:42;;;;;;;;;3.25;2.50;;;;;16.62;82.77;100252.22;4956698;28;45439;-48
2022/10/21 01:43:21;;;;;;;;;2.75;2.75;;;;;16.65;82.42;100255.34;4956415;28;45368;-46
2022/10/21 01:45:54;;;;;;;;;4.75;2.50;;;;;16.68;82.33;100259.47;4956292;28;45247;-48
2022/10/21 01:48:26;;;;;;;;;6.75;3.75;;;;;16.69;82.91;100250.41;4956691;28;45487;-48
2022/10/21 01:50:57;;;;;;;;;5.75;3.00;;;;;16.71;82.76;100265.28;4956540;28;45470;-47
2022/10/21 01:53:28;;;;;;;;;4.00;4.00;;;;;16.71;82.09;100257.22;4955891;28;45342;-46
2022/10/21 01:55:56;;;;;;;;;3.50;3.50;;;;;16.76;82.03;100277.31;4956433;28;45355;-44
2022/10/21 01:58:27;;;;;;;;;4.75;3.00;;;;;16.77;82.33;100304.00;4956154;28;45351;-47
2022/10/21 02:00:57;;;;;;;;;4.25;2.00;;;;;16.67;83.38;100319.59;4956027;28;46446;-47
2022/10/21 02:03:28;;;;;;;;;6.00;2.00;;;;;16.68;85.80;100342.72;4956130;28;45487;-48
2022/10/21 02:05:54;;;;;;;;;7.50;5.00;;;;;16.56;87.04;100346.97;4971706;28;45598;-43
2022/10/21 02:08:19;;;;;;;;;8.75;2.00;;;;;16.47;86.85;100351.66;5017921;28;45191;-43
2022/10/21 02:10:48;;;;;;;;;2.00;2.00;;;;;16.47;87.90;100381.19;5017020;28;46034;-44
2022/10/21 02:13:21;;;;;;;;;5.00;3.00;;;;;16.48;88.83;100384.72;5017287;28;45286;-44
2022/10/21 02:15:47;;;;;;;;;6.50;3.00;;;;;16.48;88.67;100366.75;5017336;28;45234;-45
2022/10/21 02:18:22;;;;;;;;;4.00;3.00;;;;;16.48;87.28;100357.88;5016763;28;45531;-44
2022/10/21 02:20:51;;;;;;;;;3.50;3.50;;;;;16.45;88.77;100359.09;5017046;28;46168;-48
2022/10/21 02:23:21;;;;;;;;;2.00;2.00;;;;;16.45;88.44;100349.19;5017233;28;45495;-46
2022/10/21 02:25:49;;;;;;;;;4.00;2.00;;;;;16.40;90.02;100313.22;5016965;28;45250;-45
2022/10/21 02:28:16;;;;;;;;;6.00;3.25;;;;;16.54;88.80;100325.69;5017376;28;45392;-46
2022/10/21 02:31:05;;;;;;;;;2.00;2.00;;;;;16.59;88.54;100317.03;5016870;28;46203;-50
2022/10/21 02:34:06;;;;;;;;;3.00;1.00;;;;;16.63;88.16;100302.19;5016966;28;45394;-47
2022/10/21 02:37:14;;;;;;;;;1.50;1.00;;;;;16.71;88.16;100289.44;5017148;28;45330;-50
2022/10/21 02:39:50;;;;;;;;;4.00;3.00;;;;;16.74;87.30;100265.94;4956070;28;45705;-45
2022/10/21 02:42:21;;;;;;;;;3.25;2.25;;;;;16.75;89.08;100236.19;4955613;28;45644;-50
2022/10/21 02:44:47;;;;;;;;;2.50;1.00;;;;;16.76;89.14;100215.53;4955687;28;45418;-47
2022/10/21 02:47:15;;;;;;;;;2.00;2.00;;;;;16.77;88.02;100209.97;4955587;28;45380;-47
2022/10/21 02:49:42;;;;;;;;;4.25;1.50;;;;;16.78;89.14;100203.56;4956028;28;45480;-46
2022/10/21 02:52:07;;;;;;;;;3.50;3.50;;;;;16.82;90.11;100201.31;4955372;28;46935;-46
2022/10/21 02:54:32;;;;;;;;;6.00;3.00;;;;;16.84;89.49;100210.81;4955231;28;45346;-47
2022/10/21 02:56:58;;;;;;;;;3.75;1.00;;;;;16.82;90.34;100220.94;4962383;28;45306;-46
2022/10/21 02:59:23;;;;;;;;;3.00;2.75;;;;;16.77;89.70;100215.34;4975086;28;45490;-47
2022/10/21 03:01:48;;;;;;;;;2.00;2.00;;;;;16.79;90.45;100213.28;4958002;28;45516;-46
2022/10/21 03:04:14;;;;;;;;;3.50;2.00;;;;;16.76;89.84;100208.28;4974658;28;45438;-45
2022/10/21 03:06:39;;;;;;;;;1.00;0.00;;;;;16.70;91.24;100201.84;4977680;28;45412;-45
2022/10/21 03:09:05;;;;;;;;;1.50;1.00;;;;;16.72;90.97;100198.94;4978467;28;45549;-48
2022/10/21 03:11:30;;;;;;;;;3.00;1.75;;;;;16.67;91.35;100193.34;4977893;28;46946;-45
2022/10/21 03:13:55;;;;;;;;;3.25;1.00;;;;;16.66;91.99;100222.06;4979278;28;45374;-47
2022/10/21 03:16:21;;;;;;;;;3.00;2.00;;;;;16.62;91.92;100220.00;5039690;28;45536;-46
2022/10/21 03:18:46;;;;;;;;;5.00;1.50;;;;;16.63;91.21;100240.44;5039923;28;45330;-43
2022/10/21 03:21:11;;;;;;;;;3.25;3.00;;;;;16.63;91.38;100249.31;5039617;28;46362;-46
2022/10/21 03:23:36;;;;;;;;;2.50;2.50;;;;;16.58;91.10;100269.75;5039419;28;45452;-45
2022/10/21 03:26:02;;;;;;;;;5.50;4.00;;;;;16.61;91.33;100285.47;5039570;28;45394;-47
2022/10/21 03:28:29;;;;;;;;;3.00;3.00;;;;;16.56;90.31;100286.06;5039345;28;45621;-46
2022/10/21 03:30:54;;;;;;;;;7.50;2.50;;;;;16.53;90.83;100291.81;5039324;28;46022;-46
2022/10/21 03:33:20;;;;;;;;;1.00;1.00;;;;;16.50;90.90;100286.00;5039776;28;45245;-49
2022/10/21 03:35:45;;;;;;;;;2.00;0.75;;;;;16.48;90.98;100274.66;5039603;28;45224;-47
2022/10/21 03:38:10;;;;;;;;;2.00;2.00;;;;;16.46;91.12;100261.41;5039980;28;45170;-46
2022/10/21 03:40:36;;;;;;;;;1.75;1.75;;;;;16.44;90.78;100255.41;5039140;28;46098;-45
2022/10/21 03:43:01;;;;;;;;;2.25;2.25;;;;;16.43;91.28;100254.59;5039140;28;45324;-50
2022/10/21 03:45:26;;;;;;;;;1.00;1.00;;;;;16.42;90.78;100238.66;5039320;28;45595;-47
2022/10/21 03:47:52;;;;;;;;;0.50;0.50;;;;;16.38;91.17;100257.00;5039663;28;45520;-47
2022/10/21 03:50:18;;;;;;;;;1.00;1.00;;;;;16.38;91.13;100250.81;5039468;28;45525;-48
2022/10/21 03:52:43;;;;;;;;;4.00;3.00;;;;;16.29;91.07;100231.34;5039381;28;45417;-47
2022/10/21 03:55:09;;;;;;;;;2.00;0.00;;;;;16.37;90.80;100254.53;5021666;28;45392;-46
2022/10/21 03:57:35;;;;;;;;;1.00;1.00;;;;;16.36;90.93;100266.31;5039538;28;45344;-44
2022/10/21 04:00:00;;;;;;;;;3.00;1.25;;;;;16.38;91.34;100264.25;5039212;28;46133;-44
2022/10/21 04:02:26;;;;;;;;;3.00;2.25;;;;;16.37;91.58;100251.84;5038920;28;45418;-46
2022/10/21 04:04:51;;;;;;;;;3.00;2.00;;;;;16.41;91.56;100261.16;5038796;28;45351;-47
2022/10/21 04:07:16;;;;;;;;;3.00;3.00;;;;;16.41;91.37;100266.53;5039276;28;45482;-45
2022/10/21 04:09:42;;;;;;;;;2.75;2.75;;;;;16.43;91.57;100268.00;5039076;28;46035;-47
2022/10/21 04:12:07;;;;;;;;;3.50;3.00;;;;;16.46;91.62;100269.47;5038908;28;45370;-46
2022/10/21 04:14:33;;;;;;;;;2.50;2.50;;;;;16.43;91.80;100273.38;5039139;28;45719;-47
2022/10/21 04:16:58;;;;;;;;;7.50;2.50;;;;;16.44;91.67;100282.25;5038909;28;45291;-48
2022/10/21 04:19:23;;;;;;;;;3.00;3.00;;;;;16.42;92.09;100282.44;5039013;28;45362;-50
2022/10/21 04:21:48;;;;;;;;;3.00;3.00;;;;;16.42;92.71;100282.44;5039215;28;45332;-48
2022/10/21 04:24:14;;;;;;;;;4.00;3.75;;;;;16.39;92.68;100268.56;5039421;28;45310;-45
2022/10/21 04:26:41;;;;;;;;;4.75;3.00;;;;;16.43;92.41;100272.53;5039528;28;45210;-49
2022/10/21 04:29:07;;;;;;;;;4.50;3.75;;;;;16.43;92.28;100269.84;5039033;28;46877;-47
2022/10/21 04:31:32;;;;;;;;;5.50;3.00;;;;;16.44;92.64;100266.16;5037223;28;45622;-47
2022/10/21 04:33:57;;;;;;;;;10.00;4.00;;;;;16.42;93.60;100270.88;5038668;28;45340;-47
2022/10/21 04:36:23;;;;;;;;;3.75;3.75;;;;;16.46;93.85;100272.13;5038827;28;45373;-47
2022/10/21 04:38:48;;;;;;;;;7.25;4.00;;;;;16.46;93.20;100264.09;5038666;28;45949;-46
2022/10/21 04:41:13;;;;;;;;;7.50;4.25;;;;;16.49;93.37;100263.69;5038576;28;45276;-46
2022/10/21 04:43:39;;;;;;;;;5.75;5.75;;;;;16.51;93.88;100261.63;5038672;28;45243;-45
2022/10/21 04:46:10;;;;;;;;;13.00;5.25;;;;;16.48;94.63;100267.41;5038552;28;45317;-46
2022/10/21 04:48:35;;;;;;;;;7.50;4.00;;;;;16.51;94.23;100275.06;5038193;28;46944;-48
2022/10/21 04:51:01;;;;;;;;;8.00;7.00;;;;;16.56;94.34;100274.47;5038247;28;45353;-46
2022/10/21 04:53:26;;;;;;;;;8.00;5.00;;;;;16.58;93.61;100270.56;5038256;28;45204;-46
2022/10/21 04:55:52;;;;;;;;;4.00;4.00;;;;;16.54;93.38;100268.47;5038559;28;45447;-47
2022/10/21 04:58:19;;;;;;;;;0.50;0.00;;;;;16.62;94.41;100271.84;5037963;28;46480;-46
2022/10/21 05:00:44;;;;;;;;;6.50;6.50;;;;;16.62;94.08;100263.78;5038140;28;45348;-44
2022/10/21 05:03:16;;;;;;;;;8.00;5.50;;;;;16.61;94.27;100277.41;5037243;28;45445;-43
2022/10/21 05:05:42;;;;;;;;;7.50;5.50;;;;;16.67;93.62;100287.34;5038322;28;45585;-45
2022/10/21 05:08:07;;;;;;;;;8.25;6.00;;;;;16.65;94.43;100279.50;5020192;28;45515;-48
2022/10/21 05:10:32;;;;;;;;;10.00;6.75;;;;;16.65;94.17;100271.44;5037863;28;45146;-46
2022/10/21 05:12:58;;;;;;;;;6.75;6.00;;;;;16.70;94.09;100270.84;5037993;28;45230;-46
2022/10/21 05:15:24;;;;;;;;;9.50;6.00;;;;;16.68;94.07;100267.53;5038398;28;45436;-45
2022/10/21 05:17:51;;;;;;;;;6.50;6.00;;;;;16.59;94.39;100261.47;5036994;28;46458;-45
2022/10/21 05:20:16;;;;;;;;;9.00;7.00;;;;;16.65;95.00;100276.81;5037951;28;45515;-46
2022/10/21 05:22:42;;;;;;;;;4.75;4.25;;;;;16.67;94.82;100296.25;5037872;28;45336;-46
2022/10/21 05:25:08;;;;;;;;;5.50;4.50;;;;;16.65;94.97;100298.31;5038118;28;45308;-46
2022/10/21 05:27:33;;;;;;;;;4.75;4.75;;;;;16.63;95.16;100296.84;5036900;28;45315;-44
2022/10/21 05:29:59;;;;;;;;;7.25;5.00;;;;;16.61;94.88;100285.47;5038144;28;45515;-46
2022/10/21 05:32:24;;;;;;;;;6.00;5.00;;;;;16.66;94.43;100289.22;5037902;28;45435;-45
2022/10/21 05:34:49;;;;;;;;;5.50;5.25;;;;;16.68;93.99;100289.00;5038065;28;45336;-43
2022/10/21 05:37:15;;;;;;;;;6.00;6.00;;;;;16.68;93.47;100289.00;5036874;28;45381;-45
2022/10/21 05:39:40;;;;;;;;;10.75;7.50;;;;;16.70;93.53;100287.78;5037649;28;45171;-47
2022/10/21 05:42:06;;;;;;;;;8.00;7.25;;;;;16.71;93.80;100276.00;5037846;28;45223;-50
2022/10/21 05:44:31;;;;;;;;;8.50;6.00;;;;;16.73;93.43;100283.06;5037817;28;45287;-47
2022/10/21 05:46:56;;;;;;;;;6.75;6.25;;;;;16.72;93.50;100271.47;5037386;28;45356;-43
2022/10/21 05:49:22;;;;;;;;;8.00;7.50;;;;;16.73;93.28;100273.19;5019565;28;45328;-49
2022/10/21 05:51:47;;;;;;;;;6.75;5.50;;;;;16.73;93.33;100286.59;5037574;28;45272;-45
2022/10/21 05:54:13;;;;;;;;;5.50;5.50;;;;;16.71;93.43;100281.38;5019693;28;45627;-47
2022/10/21 05:56:38;;;;;;;;;5.50;3.50;;;;;16.72;93.42;100301.00;5037117;28;45253;-46
2022/10/21 05:59:03;;;;;;;;;7.25;5.00;;;;;16.71;93.66;100307.41;5037382;28;45572;-45
2022/10/21 06:01:29;;;;;;;;;8.50;4.75;;;;;16.71;93.22;100310.94;5037404;28;45225;-47
2022/10/21 06:03:54;;;;;;;;;6.00;5.00;;;;;16.77;93.29;100316.56;5037160;28;45483;-45
2022/10/21 06:06:19;;;;;;;;;6.00;5.00;;;;;16.78;93.24;100331.69;5037309;28;45419;-45
2022/10/21 06:08:45;;;;;;;;;6.00;4.50;;;;;16.78;93.10;100321.75;5037024;28;45506;-48
2022/10/21 06:11:13;;;;;;;;;8.75;7.50;;;;;16.77;92.74;100343.44;5037341;28;45867;-44
2022/10/21 06:13:38;;;;;;;;;7.75;6.50;;;;;16.80;93.29;100361.84;5037258;28;45627;-44
2022/10/21 06:16:06;;;;;;;;;6.25;4.50;;;;;16.80;93.14;100361.84;5036842;28;45509;-44
2022/10/21 06:18:31;;;;;;;;;8.50;4.25;;;;;16.85;92.05;100372.81;5036726;28;45289;-44
2022/10/21 06:20:56;;;;;;;;;5.50;5.50;;;;;16.87;92.71;100378.84;5037206;28;45983;-44
2022/10/21 06:23:22;;;;;;;;;10.50;7.25;;;;;16.89;92.35;100377.59;5037259;28;45444;-44
2022/10/21 06:25:57;;;;;;;;;8.00;7.25;;;;;16.87;92.65;100376.16;5036762;28;45371;-45
2022/10/21 06:28:23;;;;;;;;;5.75;5.50;;;;;16.85;92.42;100373.66;5036952;28;45450;-46
2022/10/21 06:30:49;;;;;;;;;7.25;4.00;;;;;16.80;92.73;100368.03;5037143;28;45339;-46
2022/10/21 06:33:14;;;;;;;;;12.25;8.00;;;;;16.87;92.73;100381.53;5036837;28;45310;-45
2022/10/21 06:35:40;;;;;;;;;6.50;5.00;;;;;16.86;91.81;100399.50;5036622;28;46181;-45
2022/10/21 06:38:05;;;;;;;;;7.00;3.50;;;;;16.87;92.73;100406.53;5019066;28;45392;-46
2022/10/21 06:40:30;;;;;;;;;9.75;6.00;;;;;16.90;92.73;100421.44;5036588;28;45330;-49
2022/10/21 06:42:56;;;;;;;;;7.00;7.00;;;;;16.92;92.44;100420.22;5036818;28;45390;-46
2022/10/21 06:45:21;;;;;;;;;6.00;6.00;;;;;16.91;91.94;100420.41;5036624;28;45475;-47
2022/10/21 06:47:46;;;;;;;;;7.75;5.75;;;;;16.93;92.58;100423.72;5036512;28;45387;-48
2022/10/21 06:50:12;;;;;;;;;9.00;6.00;;;;;16.82;91.93;100414.38;5036793;28;45483;-44
2022/10/21 06:52:38;;;;;;;;;8.50;7.00;;;;;16.90;92.17;100424.13;5036789;28;45348;-47
2022/10/21 06:55:04;;;;;;;;;6.00;6.00;;;;;16.89;93.12;100425.97;5036631;28;46179;-44
2022/10/21 06:57:30;;;;;;;;;6.00;5.00;;;;;16.88;93.63;100416.25;5036376;28;45333;-45
2022/10/21 06:59:55;;;;;;;;;9.75;5.50;;;;;16.87;93.30;100419.16;5036615;28;45293;-46
2022/10/21 07:02:22;;;;;;;;;6.00;6.00;;;;;16.85;93.95;100413.13;5036059;28;45146;-46
2022/10/21 07:04:48;;;;;;;;;8.75;5.75;;;;;16.78;94.38;100406.88;5035834;28;46515;-47
2022/10/21 07:07:14;;;;;;;;;6.75;5.25;;;;;16.80;94.11;100394.06;5036466;28;45400;-43
2022/10/21 07:09:39;;;;;;;;;8.50;5.50;;;;;16.82;93.78;100392.88;5036498;28;45241;-43
2022/10/21 07:12:05;;;;;;;;;8.75;5.50;;;;;16.82;93.53;100389.34;5036872;28;45512;-43
2022/10/21 07:14:30;;;;;;;;;7.50;6.00;;;;;16.77;93.42;100395.31;5036233;28;46279;-45
2022/10/21 07:16:55;;;;;;;;;8.75;5.50;;;;;16.79;93.07;100424.66;5036331;28;45265;-45
2022/10/21 07:19:20;;;;;;;;;9.75;6.00;;;;;16.74;93.71;100425.25;5036475;28;45376;-45
2022/10/21 07:21:46;;;;;;;;;11.00;7.00;;;;;16.70;92.78;100442.75;5036588;28;45479;-46
2022/10/21 07:24:11;;;;;;;;;3.50;3.00;;;;;16.70;93.29;100457.00;5036134;28;46068;-47
2022/10/21 07:26:37;;;;;;;;;10.00;6.00;;;;;16.70;93.15;100454.31;5036259;28;45332;-44
2022/10/21 07:29:02;;;;;;;;;8.25;6.75;;;;;16.66;93.78;100460.28;5036282;28;45248;-44
2022/10/21 07:31:32;;;;;;;;;18.67;13.67;;;;;16.64;95.52;100440.81;5036487;28;45487;-46
2022/10/21 07:33:58;;;;;;;;;15.00;11.50;;;;;16.67;95.11;100429.69;5035666;28;46193;-45
2022/10/21 07:36:28;;;;;;;;;9.50;6.00;;;;;16.68;94.94;100445.59;5036000;28;45246;-46
2022/10/21 07:38:57;;;;;;;;;9.00;7.00;;;;;16.66;94.79;100460.28;5036230;28;45381;-45
2022/10/21 07:41:29;;;;;;;;;9.50;5.00;;;;;16.66;95.22;100463.78;5036365;28;45401;-46
2022/10/21 07:43:54;;;;;;;;;11.25;9.00;;;;;16.67;94.75;100472.66;5035377;28;45475;-49
2022/10/21 07:46:20;;;;;;;;;7.75;6.00;;;;;16.69;95.25;100473.31;5030797;28;45443;-44
2022/10/21 07:48:46;;;;;;;;;8.00;6.00;;;;;16.66;94.95;100473.69;5021112;28;45444;-43
2022/10/21 07:51:15;;;;;;;;;6.25;6.25;;;;;16.68;94.80;100483.19;5014660;28;45795;-49
2022/10/21 07:53:40;;;;;;;;;3.75;3.75;;;;;16.71;94.36;100474.78;5021205;28;46263;-49
2022/10/21 07:56:10;;;;;;;;;10.00;6.50;;;;;16.62;95.39;100456.31;5035264;28;45466;-49
2022/10/21 07:58:37;;;;;;;;;8.50;4.75;;;;;16.74;95.03;100472.78;5036197;28;45420;-49
2022/10/21 08:01:04;;;;;;;;;5.67;5.00;;;;;16.76;94.78;100471.53;5035548;28;45550;-50
2022/10/21 08:03:30;;;;;;;;;4.00;4.00;;;;;16.76;94.27;100474.22;5035151;28;45843;-46
2022/10/21 08:05:56;;;;;;;;;7.67;7.67;;;;;16.78;95.11;100471.34;5017987;28;45486;-51
2022/10/21 08:08:21;;;;;;;;;6.33;6.33;;;;;16.78;94.68;100471.34;5033335;28;45386;-46
2022/10/21 08:10:48;;;;;;;;;8.00;6.67;;;;;16.67;95.08;100454.69;5034724;28;45359;-49
2022/10/21 08:13:14;;;;;;;;;6.00;5.75;;;;;16.87;94.87;100472.88;5017925;28;47446;-49
2022/10/21 08:15:43;;;;;;;;;5.33;3.67;;;;;16.91;93.77;100472.28;5034221;28;45451;-49
2022/10/21 08:18:09;;;;;;;;;8.00;7.25;;;;;16.88;94.22;100461.94;5035697;28;45756;-51
2022/10/21 08:20:43;;;;;;;;;9.00;5.75;;;;;17.14;93.57;100474.72;5028800;28;45629;-47
2022/10/21 08:23:09;;;;;;;;;14.50;6.00;;;;;17.28;92.91;100486.41;5035535;28;46131;-49
2022/10/21 08:25:35;;;;;;;;;6.75;5.00;;;;;17.30;92.66;100484.34;5034895;28;45424;-47
2022/10/21 08:28:02;;;;;;;;;11.00;7.00;;;;;17.31;93.10;100486.00;5013243;28;45502;-47
2022/10/21 08:30:31;;;;;;;;;9.00;7.00;;;;;17.55;92.79;100492.78;4998231;28;45455;-46
2022/10/21 08:33:00;;;;;;;;;9.25;7.50;;;;;17.74;90.21;100474.22;5025914;28;46274;-48
2022/10/21 08:35:27;;;;;;;;;11.00;7.50;;;;;18.23;88.91;100471.34;5030970;28;45578;-51
2022/10/21 08:37:52;;;;;;;;;6.25;6.25;;;;;18.77;87.15;100483.06;5035653;28;45599;-47
2022/10/21 08:40:19;;;;;;;;;6.75;5.50;;;;;19.05;84.27;100483.69;5035278;28;45636;-50
2022/10/21 08:42:46;;;;;;;;;8.25;8.25;;;;;19.25;82.52;100477.44;5035542;28;45463;-47
2022/10/21 08:45:15;;;;;;;;;5.00;5.00;;;;;19.54;81.70;100481.50;5035795;28;45495;-48
2022/10/21 08:47:49;;;;;;;;;8.50;8.00;;;;;19.89;79.49;100488.28;5035455;28;45559;-49
2022/10/21 08:50:19;;;;;;;;;6.75;5.75;;;;;20.02;79.94;100491.97;5032784;28;45447;-47
2022/10/21 08:53:00;;;;;;;;;6.00;5.00;;;;;20.47;76.75;100476.53;5037347;28;46410;-50
2022/10/21 08:55:39;;;;;;;;;7.75;7.00;;;;;21.05;74.55;100486.31;5038327;28;45410;-48
2022/10/21 08:58:09;;;;;;;;;8.25;8.00;;;;;21.57;71.84;100471.44;5038161;28;45281;-51
2022/10/21 09:00:43;;;;;;;;;6.25;5.75;;;;;23.24;66.97;100475.31;5038308;28;45434;-48
2022/10/21 09:03:34;;;;;;;;;10.20;7.00;;;;;23.73;65.08;100482.13;5036346;28;47260;-47
2022/10/21 09:06:12;;;;;;;;;6.00;4.80;;;;;23.06;64.77;100485.22;5037808;28;45310;-49
2022/10/21 09:08:55;;;;;;;;;6.40;6.00;;;;;23.08;64.55;100485.81;5038263;28;45258;-46
2022/10/21 09:11:23;;;;;;;;;6.00;4.20;;;;;23.16;65.68;100490.88;5038254;28;45265;-47
2022/10/21 09:14:33;;;;;;;;;8.00;5.00;;;;;23.78;64.84;100482.22;5037745;28;46390;-48
2022/10/21 09:17:17;;;;;;;;;7.80;6.40;;;;;23.60;64.57;100474.22;5037865;28;45376;-48
2022/10/21 09:20:02;;;;;;;;;9.40;7.40;;;;;22.94;65.09;100481.69;5019908;28;45507;-50
2022/10/21 09:22:48;;;;;;;;;7.20;5.60;;;;;22.74;65.85;100483.84;5038069;28;45421;-45
2022/10/21 09:25:20;;;;;;;;;6.60;5.60;;;;;22.49;66.33;100492.16;5036968;28;45397;-48
2022/10/21 09:27:46;;;;;;;;;4.20;4.00;;;;;22.34;66.57;100487.19;5037542;28;45471;-46
2022/10/21 09:30:20;;;;;;;;;5.00;4.80;;;;;22.26;66.73;100491.03;5037631;28;45341;-48
2022/10/21 09:32:48;;;;;;;;;9.00;6.00;;;;;22.97;64.74;100491.25;5037923;28;45340;-46
2022/10/21 09:35:30;;;;;;;;;5.20;5.20;;;;;23.71;63.53;100489.69;5037276;28;46419;-47
2022/10/21 09:38:00;;;;;;;;;5.80;5.20;;;;;24.05;61.17;100482.50;5037570;28;45439;-45
2022/10/21 09:40:29;;;;;;;;;9.00;7.00;;;;;23.61;61.61;100482.13;5037520;28;45445;-49
2022/10/21 09:42:57;;;;;;;;;4.60;3.60;;;;;23.02;63.35;100489.47;5037557;28;45313;-48
2022/10/21 09:45:31;;;;;;;;;3.80;3.80;;;;;22.81;65.75;100490.00;5037143;28;46163;-48
2022/10/21 09:48:02;;;;;;;;;6.00;4.00;;;;;23.49;62.70;100478.59;5037242;28;45417;-45
2022/10/21 09:50:29;;;;;;;;;4.60;4.00;;;;;23.87;61.25;100471.81;5037277;28;45402;-50
2022/10/21 09:53:00;;;;;;;;;8.40;5.60;;;;;23.89;61.84;100478.66;5037410;28;45496;-45
2022/10/21 09:55:28;;;;;;;;;5.00;5.00;;;;;25.11;59.36;100482.78;5037029;28;46308;-48
2022/10/21 09:57:57;;;;;;;;;5.20;4.60;;;;;24.72;58.69;100475.56;5037141;28;45518;-46
2022/10/21 10:00:48;;;;;;;;;3.40;3.40;;;;;23.91;61.69;100464.84;5036253;28;45365;-48
2022/10/21 10:03:32;;;;;;;;;6.60;6.60;;;;;23.30;62.23;100482.50;5027431;28;45333;-48
2022/10/21 10:05:58;;;;;;;;;5.20;5.00;;;;;22.85;63.97;100483.88;5016621;28;45528;-50
2022/10/21 10:08:29;;;;;;;;;5.60;5.60;;;;;22.38;64.92;100494.63;5017160;28;45412;-51
2022/10/21 10:11:21;;;;;;;;;9.60;8.20;;;;;22.09;65.97;100487.28;5013308;28;45480;-48
2022/10/21 10:13:49;;;;;;;;;5.00;5.00;;;;;23.49;63.59;100494.88;5022464;28;45698;-46
2022/10/21 10:16:15;;;;;;;;;5.80;5.80;;;;;25.98;55.47;100478.50;5025624;28;46132;-51
2022/10/21 10:18:42;;;;;;;;;11.00;6.50;;;;;27.59;52.40;100478.50;5034145;28;45812;-48
2022/10/21 10:21:15;;;;;;;;;4.60;4.60;;;;;27.19;53.33;100488.13;5033883;28;45487;-48
2022/10/21 10:23:53;;;;;;;;;8.80;6.60;;;;;28.23;51.28;100470.00;5034182;28;46696;-49
2022/10/21 10:26:23;;;;;;;;;9.80;8.00;;;;;29.23;48.13;100472.22;5026025;28;46125;-46
2022/10/21 10:28:52;;;;;;;;;6.00;4.80;;;;;30.24;44.96;100489.41;5034195;28;45431;-48
2022/10/21 10:31:27;;;;;;;;;5.40;4.80;;;;;31.06;42.37;100481.41;5033997;28;45519;-48
2022/10/21 10:33:56;;;;;;;;;7.80;6.40;;;;;31.34;41.62;100465.19;5002467;28;45648;-48
2022/10/21 10:36:31;;;;;;;;;10.00;6.00;;;;;31.23;42.58;100471.88;5028083;28;47208;-48
2022/10/21 10:39:00;;;;;;;;;6.20;6.00;;;;;30.04;43.55;100473.03;5033664;28;45519;-47
2022/10/21 10:41:32;;;;;;;;;6.40;4.80;;;;;29.28;47.46;100485.09;5033526;28;45516;-45
2022/10/21 10:43:58;;;;;;;;;8.40;8.40;;;;;29.29;45.33;100475.78;5034300;28;45474;-48
2022/10/21 10:46:30;;;;;;;;;10.25;7.50;;;;;29.32;44.59;100473.28;5034028;28;46116;-51
2022/10/21 10:49:21;;;;;;;;;6.60;5.00;;;;;28.58;46.88;100479.38;5032398;28;45395;-52
2022/10/21 10:52:03;;;;;;;;;5.60;5.60;;;;;28.32;47.96;100482.06;5021562;28;45396;-43
2022/10/21 10:54:28;;;;;;;;;6.80;4.60;;;;;28.48;46.21;100482.09;5033908;28;45472;-43
2022/10/21 10:57:16;;;;;;;;;6.00;4.50;;;;;28.24;47.08;100462.63;5033505;28;45470;-48
2022/10/21 10:59:51;;;;;;;;;5.80;5.80;;;;;27.82;47.09;100474.53;5023670;28;45489;-43
2022/10/21 11:02:37;;;;;;;;;6.00;4.40;;;;;27.95;49.13;100481.41;5033305;28;45490;-54
2022/10/21 11:05:15;;;;;;;;;5.20;4.60;;;;;27.73;46.95;100466.03;5015510;28;45492;-48
2022/10/21 11:07:48;;;;;;;;;2.60;2.60;;;;;27.87;48.59;100477.28;5033302;28;46101;-44
2022/10/21 11:10:31;;;;;;;;;8.40;4.00;;;;;27.84;47.73;100467.69;5028835;28;45494;-47
2022/10/21 11:12:59;;;;;;;;;4.60;2.80;;;;;27.94;46.88;100460.63;5033856;28;45452;-47
2022/10/21 11:15:46;;;;;;;;;8.20;4.80;;;;;28.05;46.62;100460.38;5033645;28;45793;-43
2022/10/21 11:18:46;;;;;;;;;6.40;4.60;;;;;28.34;45.34;100466.19;5029530;28;47201;-44
2022/10/21 11:21:33;;;;;;;;;5.60;3.40;;;;;28.59;44.92;100473.63;5026898;28;45187;-42
2022/10/21 11:24:20;;;;;;;;;5.60;4.00;;;;;28.65;44.80;100468.16;5030078;28;45490;-45
2022/10/21 11:27:10;;;;;;;;;6.80;5.00;;;;;28.84;44.89;100461.84;5034975;28;45705;-44
2022/10/21 11:29:38;;;;;;;;;5.80;5.00;;;;;28.97;44.36;100460.50;5036105;28;45514;-44
2022/10/21 11:32:13;;;;;;;;;4.00;3.00;;;;;29.22;43.77;100467.84;5036676;28;45470;-45
2022/10/21 11:34:57;;;;;;;;;9.00;5.00;;;;;29.82;41.88;100471.50;5035863;28;45519;-46
2022/10/21 11:37:53;;;;;;;;;4.20;2.20;;;;;30.58;40.00;100478.47;5036833;28;45840;-47